Time;durP1;ratioP1;P1;durP2;ratioP2;P2;SDS_P1;SDS_P2;PMS_P1;PMS_P2;Temp;Humidity;BMP_temperature;BMP_pressure;BME280_temperature;BME280_humidity;BME280_pressure;Samples;Min_cycle;Max_cycle;Signal;HPM_P1;HPM_P2
2024/02/13 00:00:09;;;;;;;4.55;3.88;;;4.50;99.90;;;;;;5036888;28;20109;-31
2024/02/13 00:02:35;;;;;;;;;;;4.50;99.90;;;;;;5039586;28;20024;-37
2024/02/13 00:05:00;;;;;;;6.72;4.05;;;4.50;99.90;;;;;;5038997;28;19912;-35
2024/02/13 00:07:27;;;;;;;5.95;3.80;;;4.40;99.90;;;;;;5039964;28;20036;-35
2024/02/13 00:09:52;;;;;;;6.50;4.07;;;4.40;99.90;;;;;;5038501;28;20094;-37
2024/02/13 00:12:18;;;;;;;8.77;4.07;;;4.40;99.90;;;;;;5038813;28;20522;-34
2024/02/13 00:14:44;;;;;;;5.47;3.78;;;4.40;99.90;;;;;;5039814;28;20143;-38
2024/02/13 00:17:10;;;;;;;5.28;4.35;;;4.40;99.90;;;;;;5039258;28;20080;-37
2024/02/13 00:19:36;;;;;;;6.63;3.58;;;4.40;99.90;;;;;;5037608;28;20449;-37
2024/02/13 00:22:01;;;;;;;6.88;3.42;;;4.40;99.90;;;;;;5039514;28;20013;-36
2024/02/13 00:24:27;;;;;;;5.88;3.15;;;4.40;99.90;;;;;;5038621;28;20053;-33
2024/02/13 00:26:53;;;;;;;4.72;3.35;;;4.40;99.90;;;;;;5038609;28;20178;-36
2024/02/13 00:29:18;;;;;;;5.68;3.08;;;4.40;99.90;;;;;;5039165;28;20032;-34
2024/02/13 00:31:45;;;;;;;8.25;4.10;;;4.30;99.90;;;;;;5037736;28;20021;-35
2024/02/13 00:34:10;;;;;;;7.68;3.85;;;4.30;99.90;;;;;;5038515;28;20128;-36
2024/02/13 00:36:36;;;;;;;7.03;3.92;;;4.30;99.90;;;;;;5038173;28;20035;-35
2024/02/13 00:39:01;;;;;;;6.30;4.03;;;4.30;99.90;;;;;;5037959;28;20055;-36
2024/02/13 00:41:27;;;;;;;5.10;3.80;;;4.30;99.90;;;;;;5038613;28;20163;-35
2024/02/13 00:43:53;;;;;;;5.47;3.97;;;4.30;99.90;;;;;;5039122;28;20033;-36
2024/02/13 00:46:19;;;;;;;5.10;3.60;;;4.30;99.90;;;;;;5038240;28;20032;-37
2024/02/13 00:48:45;;;;;;;5.93;3.80;;;4.30;99.90;;;;;;5038190;28;20033;-34
2024/02/13 00:51:10;;;;;;;4.80;3.80;;;4.30;99.90;;;;;;5037092;28;20050;-37
2024/02/13 00:53:39;;;;;;;5.13;3.20;;;4.30;99.90;;;;;;5036281;28;20781;-36
2024/02/13 00:56:07;;;;;;;5.10;3.90;;;4.30;99.90;;;;;;5038837;28;20033;-35
2024/02/13 00:58:36;;;;;;;4.68;3.65;;;4.30;99.90;;;;;;5038975;28;20866;-35
2024/02/13 01:01:05;;;;;;;5.78;3.60;;;4.30;99.90;;;;;;5036749;28;20037;-32
2024/02/13 01:03:31;;;;;;;5.28;3.60;;;4.30;99.90;;;;;;5038727;28;20052;-33
2024/02/13 01:05:56;;;;;;;5.18;3.75;;;4.30;99.90;;;;;;5038438;28;20020;-34
2024/02/13 01:08:25;;;;;;;5.60;4.18;;;4.30;99.90;;;;;;5038032;28;20041;-35
2024/02/13 01:10:51;;;;;;;5.13;3.80;;;4.30;99.90;;;;;;5037874;28;20029;-36
2024/02/13 01:13:17;;;;;;;5.80;4.22;;;4.30;99.90;;;;;;5038078;28;20080;-38
2024/02/13 01:15:43;;;;;;;6.28;4.68;;;4.30;99.90;;;;;;5038511;28;20524;-39
2024/02/13 01:18:09;;;;;;;6.20;4.28;;;4.30;99.90;;;;;;5038156;28;20400;-35
2024/02/13 01:20:34;;;;;;;5.82;4.47;;;4.30;99.90;;;;;;5037211;28;20451;-38
2024/02/13 01:23:00;;;;;;;8.93;4.88;;;4.30;99.90;;;;;;5038238;28;20032;-37
2024/02/13 01:25:25;;;;;;;7.07;4.75;;;4.30;99.90;;;;;;5037848;28;20036;-36
2024/02/13 01:27:51;;;;;;;7.07;4.95;;;4.30;99.90;;;;;;5037946;28;20075;-36
2024/02/13 01:30:17;;;;;;;6.15;4.70;;;4.30;99.90;;;;;;5039242;28;20029;-38
2024/02/13 01:32:43;;;;;;;7.15;4.90;;;4.30;99.90;;;;;;5041402;28;20021;-39
2024/02/13 01:35:11;;;;;;;7.35;4.82;;;4.20;99.90;;;;;;5040322;28;20040;-34
2024/02/13 01:37:36;;;;;;;7.88;5.00;;;4.20;99.90;;;;;;5041642;28;20057;-38
2024/02/13 01:40:05;;;;;;;7.22;5.03;;;4.20;99.90;;;;;;5041632;28;20160;-36
2024/02/13 01:42:37;;;;;;;7.03;4.40;;;4.20;99.90;;;;;;5041055;28;20025;-36
2024/02/13 01:45:13;;;;;;;5.70;4.35;;;4.10;99.90;;;;;;5041407;28;20076;-35
2024/02/13 01:47:42;;;;;;;6.80;4.80;;;4.10;99.90;;;;;;5042207;28;20028;-37
2024/02/13 01:50:14;;;;;;;8.55;4.63;;;4.10;99.90;;;;;;5040488;28;20379;-39
2024/02/13 01:52:42;;;;;;;6.63;5.07;;;4.10;99.90;;;;;;5041367;28;20499;-37
2024/02/13 01:55:09;;;;;;;6.72;5.22;;;4.10;99.90;;;;;;5041401;28;20442;-33
2024/02/13 01:57:39;;;;;;;6.28;5.45;;;4.00;99.90;;;;;;5041046;28;20037;-34
2024/02/13 02:00:05;;;;;;;8.82;6.28;;;4.00;99.90;;;;;;5040269;28;20031;-35
2024/02/13 02:02:32;;;;;;;8.50;6.30;;;4.00;99.90;;;;;;5041618;28;20103;-34
2024/02/13 02:04:59;;;;;;;8.23;6.25;;;4.00;99.90;;;;;;5040589;28;20536;-34
2024/02/13 02:07:27;;;;;;;9.73;6.22;;;4.00;99.90;;;;;;5041652;28;20815;-36
2024/02/13 02:09:57;;;;;;;6.68;5.57;;;4.00;99.90;;;;;;5040785;28;21272;-36
2024/02/13 02:12:23;;;;;;;10.18;6.60;;;4.00;99.90;;;;;;5040650;28;20033;-38
2024/02/13 02:14:49;;;;;;;8.60;5.90;;;4.00;99.90;;;;;;5041235;28;20492;-34
2024/02/13 02:17:15;;;;;;;9.25;6.63;;;4.00;99.90;;;;;;5041162;28;20041;-36
2024/02/13 02:19:41;;;;;;;8.75;6.18;;;4.00;99.90;;;;;;5042048;28;20021;-38
2024/02/13 02:22:07;;;;;;;6.88;6.18;;;4.00;99.90;;;;;;5041429;28;20033;-35
2024/02/13 02:24:34;;;;;;;6.55;5.72;;;4.00;99.90;;;;;;5040299;28;20028;-35
2024/02/13 02:27:01;;;;;;;9.00;6.68;;;3.90;99.90;;;;;;5040718;28;20036;-37
2024/02/13 02:29:27;;;;;;;9.32;7.25;;;3.90;99.90;;;;;;5041054;28;20031;-37
2024/02/13 02:31:52;;;;;;;7.03;6.25;;;3.90;99.90;;;;;;5039406;28;20024;-35
2024/02/13 02:34:21;;;;;;;7.65;5.90;;;3.90;99.90;;;;;;5038656;28;20033;-33
2024/02/13 02:36:50;;;;;;;8.85;6.72;;;3.90;99.90;;;;;;5040675;28;20087;-36
2024/02/13 02:39:19;;;;;;;7.20;6.50;;;3.90;99.90;;;;;;5039823;28;20056;-38
2024/02/13 02:41:44;;;;;;;7.10;6.38;;;3.90;99.90;;;;;;5040116;28;20027;-36
2024/02/13 02:44:10;;;;;;;7.78;6.38;;;3.90;99.90;;;;;;5038504;28;20024;-37
2024/02/13 02:46:38;;;;;;;8.25;6.72;;;3.90;99.90;;;;;;5040730;28;20029;-37
2024/02/13 02:49:05;;;;;;;7.72;7.03;;;3.90;99.90;;;;;;5040086;28;20039;-36
2024/02/13 02:51:37;;;;;;;8.90;6.85;;;3.90;99.90;;;;;;5040832;28;20029;-37
2024/02/13 02:54:03;;;;;;;9.07;6.80;;;3.90;99.90;;;;;;5039723;28;20017;-37
2024/02/13 02:56:30;;;;;;;9.20;6.80;;;4.00;99.90;;;;;;5040513;28;20032;-35
2024/02/13 02:58:56;;;;;;;11.15;7.93;;;4.00;99.90;;;;;;5040593;28;20616;-35
2024/02/13 03:01:22;;;;;;;12.77;8.45;;;4.00;99.90;;;;;;5039530;28;20037;-37
2024/02/13 03:03:50;;;;;;;10.95;8.07;;;4.00;99.90;;;;;;5039621;28;20032;-37
2024/02/13 03:06:18;;;;;;;8.93;7.60;;;4.00;99.90;;;;;;5040139;28;20040;-37
2024/02/13 03:08:44;;;;;;;8.82;7.88;;;4.00;99.90;;;;;;5040387;28;20053;-35
2024/02/13 03:11:09;;;;;;;8.77;7.88;;;4.00;99.90;;;;;;5039999;28;20036;-36
2024/02/13 03:13:35;;;;;;;10.63;8.25;;;4.00;99.90;;;;;;5039085;28;20021;-35
2024/02/13 03:16:02;;;;;;;10.10;7.82;;;4.00;99.90;;;;;;5039651;28;20825;-36
2024/02/13 03:18:28;;;;;;;13.63;8.55;;;4.00;99.90;;;;;;5040542;28;20059;-36
2024/02/13 03:20:53;;;;;;;11.32;8.30;;;4.00;99.90;;;;;;5039740;28;20470;-35
2024/02/13 03:23:19;;;;;;;11.32;8.30;;;4.10;99.90;;;;;;5036381;28;20564;-36
2024/02/13 03:25:44;;;;;;;9.55;7.55;;;4.10;99.90;;;;;;5035772;28;20037;-37
2024/02/13 03:28:11;;;;;;;10.82;7.38;;;4.10;99.90;;;;;;5039387;28;20025;-35
2024/02/13 03:30:37;;;;;;;10.27;8.20;;;4.10;99.90;;;;;;5040486;28;20032;-35
2024/02/13 03:33:05;;;;;;;9.32;7.72;;;4.10;99.90;;;;;;5039949;28;20032;-37
2024/02/13 03:35:31;;;;;;;10.63;8.00;;;4.10;99.90;;;;;;5037679;28;20056;-38
2024/02/13 03:37:57;;;;;;;10.38;8.57;;;4.10;99.90;;;;;;5039797;28;20123;-38
2024/02/13 03:40:23;;;;;;;10.90;8.45;;;4.00;99.90;;;;;;5039711;28;20035;-36
2024/02/13 03:42:48;;;;;;;9.20;7.82;;;4.00;99.90;;;;;;5039810;28;20270;-35
2024/02/13 03:45:14;;;;;;;9.95;8.27;;;4.00;99.90;;;;;;5038885;28;20668;-37
2024/02/13 03:47:43;;;;;;;10.38;7.82;;;4.00;99.90;;;;;;5040151;28;20679;-37
2024/02/13 03:50:12;;;;;;;8.05;7.25;;;4.00;99.90;;;;;;5038049;28;20028;-37
2024/02/13 03:52:37;;;;;;;10.57;7.80;;;3.90;99.90;;;;;;5038746;28;20031;-36
2024/02/13 03:55:05;;;;;;;7.95;6.72;;;3.90;99.90;;;;;;5039523;28;20045;-37
2024/02/13 03:57:31;;;;;;;7.72;6.90;;;3.90;99.90;;;;;;5019022;28;20075;-37
2024/02/13 03:59:57;;;;;;;8.15;7.20;;;3.90;99.90;;;;;;5033771;28;20025;-36
2024/02/13 04:02:22;;;;;;;9.13;7.15;;;3.90;99.90;;;;;;5039586;28;20028;-37
2024/02/13 04:04:49;;;;;;;7.90;7.10;;;3.90;99.90;;;;;;5037740;28;20032;-35
2024/02/13 04:07:15;;;;;;;8.45;7.15;;;3.90;99.90;;;;;;5039429;28;20028;-37
2024/02/13 04:09:41;;;;;;;9.25;6.72;;;3.90;99.90;;;;;;5038498;28;20126;-37
2024/02/13 04:12:09;;;;;;;8.40;7.22;;;3.90;99.90;;;;;;5039739;28;20208;-35
2024/02/13 04:14:37;;;;;;;7.55;6.65;;;3.90;99.90;;;;;;5038504;28;20334;-35
2024/02/13 04:17:03;;;;;;;9.27;7.43;;;3.90;99.90;;;;;;5038525;28;20060;-38
2024/02/13 04:19:29;;;;;;;9.75;7.60;;;3.90;99.90;;;;;;5038762;28;20095;-35
2024/02/13 04:21:54;;;;;;;11.80;8.10;;;3.90;99.90;;;;;;5039561;28;20021;-34
2024/02/13 04:24:20;;;;;;;10.38;8.07;;;3.90;99.90;;;;;;5037299;28;20152;-37
2024/02/13 04:26:45;;;;;;;10.80;8.23;;;3.80;99.90;;;;;;5039687;28;20053;-33
2024/02/13 04:29:11;;;;;;;10.77;8.07;;;3.80;99.90;;;;;;5039148;28;20218;-31
2024/02/13 04:31:38;;;;;;;10.30;7.70;;;3.80;99.90;;;;;;5036310;28;20063;-35
2024/02/13 04:34:04;;;;;;;11.15;7.57;;;3.80;99.90;;;;;;5039288;28;20033;-37
2024/02/13 04:36:37;;;;;;;7.95;6.75;;;3.80;99.90;;;;;;5038501;28;20036;-35
2024/02/13 04:39:03;;;;;;;10.45;8.20;;;3.80;99.90;;;;;;5039516;28;20453;-34
2024/02/13 04:41:31;;;;;;;9.45;8.45;;;3.80;99.90;;;;;;5038034;28;20024;-36
2024/02/13 04:43:57;;;;;;;9.93;8.65;;;3.70;99.90;;;;;;5037475;28;20036;-35
2024/02/13 04:46:24;;;;;;;9.77;7.40;;;3.70;99.90;;;;;;5038223;28;20025;-37
2024/02/13 04:48:53;;;;;;;9.18;7.88;;;3.70;99.90;;;;;;5038956;28;20479;-38
2024/02/13 04:51:19;;;;;;;9.80;7.78;;;3.70;99.90;;;;;;5038293;28;20032;-37
2024/02/13 04:53:45;;;;;;;8.50;7.43;;;3.70;99.90;;;;;;5037439;28;20025;-35
2024/02/13 04:56:11;;;;;;;8.90;7.93;;;3.70;99.90;;;;;;5038464;28;20025;-33
2024/02/13 04:58:43;;;;;;;10.00;7.18;;;3.70;99.90;;;;;;5038643;28;20132;-32
2024/02/13 05:01:12;;;;;;;9.88;7.20;;;3.60;99.90;;;;;;5037970;28;20048;-36
2024/02/13 05:08:56;;;;;;;9.85;6.80;;;3.60;99.90;;;;;;5042758;28;20800;-33
2024/02/13 05:11:29;;;;;;;9.90;7.03;;;3.60;99.90;;;;;;5042761;28;20021;-35
2024/02/13 05:13:56;;;;;;;8.13;6.20;;;3.60;99.90;;;;;;5041171;28;20060;-34
2024/02/13 05:16:24;;;;;;;9.52;6.65;;;3.60;99.90;;;;;;5041860;28;20495;-37
2024/02/13 05:18:51;;;;;;;8.27;6.88;;;3.60;99.90;;;;;;5042688;28;20066;-39
2024/02/13 05:21:20;;;;;;;11.52;7.38;;;3.60;99.90;;;;;;5040974;28;20638;-36
2024/02/13 05:23:50;;;;;;;9.30;6.80;;;3.60;99.90;;;;;;5042000;28;20029;-35
2024/02/13 05:26:17;;;;;;;10.40;7.28;;;3.70;99.90;;;;;;5041524;28;20503;-37
2024/02/13 05:28:47;;;;;;;8.60;7.70;;;3.70;99.90;;;;;;5041562;28;20027;-37
2024/02/13 05:31:12;;;;;;;11.43;7.97;;;3.70;99.90;;;;;;5041375;28;20029;-35
2024/02/13 05:33:39;;;;;;;9.15;7.68;;;3.70;99.90;;;;;;5042061;28;20075;-35
2024/02/13 05:36:05;;;;;;;10.55;7.72;;;3.70;99.90;;;;;;5041862;28;20147;-34
2024/02/13 05:38:39;;;;;;;9.65;6.88;;;3.70;99.90;;;;;;5041776;28;20021;-36
2024/02/13 05:41:05;;;;;;;9.48;7.07;;;3.70;99.90;;;;;;5022033;28;20087;-35
2024/02/13 05:43:31;;;;;;;8.05;6.70;;;3.70;99.90;;;;;;5037083;28;20112;-32
2024/02/13 05:45:56;;;;;;;8.55;6.88;;;3.70;99.90;;;;;;5040399;28;20028;-31
2024/02/13 05:48:24;;;;;;;9.85;8.07;;;3.80;99.90;;;;;;5039772;28;20401;-36
2024/02/13 05:50:51;;;;;;;10.30;7.82;;;3.70;99.90;;;;;;5041700;28;20508;-36
2024/02/13 05:53:16;;;;;;;13.50;7.90;;;3.80;99.90;;;;;;5041034;28;20033;-33
2024/02/13 05:55:42;;;;;;;11.02;7.85;;;3.80;99.90;;;;;;5040827;28;20049;-35
2024/02/13 05:58:08;;;;;;;10.18;7.82;;;3.70;99.90;;;;;;5040759;28;20471;-34
2024/02/13 06:00:34;;;;;;;7.97;7.03;;;3.80;99.90;;;;;;5040731;28;20115;-35
2024/02/13 06:03:00;;;;;;;9.05;7.68;;;3.80;99.90;;;;;;5041071;28;20134;-35
2024/02/13 06:05:27;;;;;;;9.07;7.13;;;3.80;99.90;;;;;;5029591;28;20033;-35
2024/02/13 06:07:53;;;;;;;8.50;6.70;;;3.80;99.90;;;;;;5041396;28;20029;-36
2024/02/13 06:10:19;;;;;;;8.95;7.13;;;3.80;99.90;;;;;;5040718;28;20060;-30
2024/02/13 06:12:45;;;;;;;9.30;7.32;;;3.80;99.90;;;;;;5040382;28;20099;-33
2024/02/13 06:15:11;;;;;;;8.40;6.97;;;3.80;99.90;;;;;;5039126;28;20071;-32
2024/02/13 06:17:37;;;;;;;9.75;6.90;;;3.80;99.90;;;;;;5039076;28;20802;-34
2024/02/13 06:20:06;;;;;;;7.45;6.68;;;3.80;99.90;;;;;;5040934;28;20107;-34
2024/02/13 06:22:37;;;;;;;8.75;6.30;;;3.80;99.90;;;;;;5041296;28;20083;-35
2024/02/13 06:25:05;;;;;;;8.18;6.18;;;3.80;99.90;;;;;;5040505;28;20028;-36
2024/02/13 06:27:34;;;;;;;9.38;6.97;;;3.80;99.90;;;;;;5021386;28;20047;-36
2024/02/13 06:30:01;;;;;;;9.15;7.43;;;3.70;99.90;;;;;;5036404;28;20610;-33
2024/02/13 06:32:27;;;;;;;10.93;6.10;;;3.80;99.90;;;;;;5057751;28;20585;-34
2024/02/13 06:34:53;;;;;;;9.82;6.60;;;3.70;99.90;;;;;;5048130;28;20098;-33
2024/02/13 06:37:19;;;;;;;8.27;6.80;;;3.70;99.90;;;;;;5039294;28;20648;-35
2024/02/13 06:39:46;;;;;;;7.18;6.05;;;3.70;99.90;;;;;;5039240;28;20033;-35
2024/02/13 06:42:11;;;;;;;8.93;6.78;;;3.70;99.90;;;;;;5040733;28;20103;-35
2024/02/13 06:44:38;;;;;;;10.20;6.63;;;3.70;99.90;;;;;;5039423;28;20055;-36
2024/02/13 06:47:06;;;;;;;7.72;6.38;;;3.70;99.90;;;;;;5038924;28;20024;-37
2024/02/13 06:49:33;;;;;;;10.73;6.50;;;3.70;99.90;;;;;;5040689;28;20017;-35
2024/02/13 06:51:59;;;;;;;8.43;6.35;;;3.70;99.90;;;;;;5040373;28;20033;-36
2024/02/13 06:54:25;;;;;;;9.25;6.70;;;3.70;99.90;;;;;;5040441;28;20031;-35
2024/02/13 06:56:51;;;;;;;7.50;6.35;;;3.70;99.90;;;;;;5040954;28;20025;-34
2024/02/13 06:59:17;;;;;;;7.53;5.72;;;3.70;99.90;;;;;;5040502;28;20029;-36
2024/02/13 07:01:42;;;;;;;7.93;6.38;;;3.70;99.90;;;;;;5040227;28;20365;-37
2024/02/13 07:04:10;;;;;;;8.20;6.28;;;3.70;99.90;;;;;;5039617;28;20025;-36
2024/02/13 07:06:36;;;;;;;8.68;5.65;;;3.70;99.90;;;;;;5038000;28;20055;-33
2024/02/13 07:09:02;;;;;;;6.32;5.47;;;3.70;99.90;;;;;;5039626;28;20040;-35
2024/02/13 07:11:28;;;;;;;6.68;5.63;;;3.70;99.90;;;;;;5039303;28;20200;-36
2024/02/13 07:13:56;;;;;;;6.50;5.43;;;3.70;99.90;;;;;;5039073;28;20078;-32
2024/02/13 07:16:22;;;;;;;6.15;4.90;;;3.70;99.90;;;;;;5039652;28;20033;-36
2024/02/13 07:18:48;;;;;;;7.85;5.50;;;3.80;99.90;;;;;;5038612;28;20673;-35
2024/02/13 07:21:13;;;;;;;6.03;5.07;;;3.70;99.90;;;;;;5038907;28;20559;-34
2024/02/13 07:23:39;;;;;;;7.35;5.70;;;3.80;99.90;;;;;;5038388;28;20031;-34
2024/02/13 07:26:05;;;;;;;6.72;5.53;;;3.80;99.90;;;;;;5039486;28;20028;-35
2024/02/13 07:28:30;;;;;;;6.78;5.30;;;3.80;99.90;;;;;;5038089;28;20056;-36
2024/02/13 07:30:56;;;;;;;6.63;5.10;;;3.80;99.90;;;;;;5039190;28;20086;-37
2024/02/13 07:33:22;;;;;;;6.45;4.93;;;3.80;99.90;;;;;;5039321;28;20051;-35
2024/02/13 07:35:48;;;;;;;6.65;5.00;;;3.80;99.90;;;;;;5039817;28;20036;-34
2024/02/13 07:38:13;;;;;;;6.05;4.25;;;3.80;99.90;;;;;;5039539;28;20052;-34
2024/02/13 07:40:39;;;;;;;4.93;4.10;;;3.80;99.90;;;;;;5039007;28;20242;-35
2024/02/13 07:43:06;;;;;;;6.50;4.32;;;3.90;99.90;;;;;;5039032;28;20029;-32
2024/02/13 07:45:32;;;;;;;5.50;4.32;;;3.90;99.90;;;;;;5039138;28;20086;-32
2024/02/13 07:47:59;;;;;;;4.97;4.20;;;3.90;99.90;;;;;;5037839;28;20036;-34
2024/02/13 07:50:25;;;;;;;4.22;3.83;;;3.90;99.90;;;;;;5039761;28;20629;-34
2024/02/13 07:52:51;;;;;;;6.57;4.35;;;4.00;99.90;;;;;;5038972;28;20044;-37
2024/02/13 07:55:17;;;;;;;5.78;4.15;;;4.00;99.90;;;;;;5038118;28;20048;-34
2024/02/13 07:57:42;;;;;;;6.60;4.35;;;4.00;99.90;;;;;;5038656;28;20029;-36
2024/02/13 08:00:08;;;;;;;5.88;4.35;;;4.00;99.90;;;;;;5038752;28;20036;-32
2024/02/13 08:02:37;;;;;;;5.97;4.30;;;4.00;99.90;;;;;;5038644;28;20427;-37
2024/02/13 08:05:04;;;;;;;5.40;4.03;;;4.10;99.90;;;;;;5039198;28;20102;-33
2024/02/13 08:07:30;;;;;;;6.50;4.25;;;4.10;99.90;;;;;;5038450;28;20617;-35
2024/02/13 08:09:56;;;;;;;6.30;4.50;;;4.10;99.90;;;;;;5038582;28;20053;-36
2024/02/13 08:12:21;;;;;;;6.70;4.15;;;4.10;99.90;;;;;;5038923;28;20028;-34
2024/02/13 08:14:48;;;;;;;5.53;3.75;;;4.20;99.90;;;;;;5039846;28;20068;-32
2024/02/13 08:17:14;;;;;;;5.95;4.00;;;4.20;99.90;;;;;;5038233;28;20028;-34
2024/02/13 08:19:40;;;;;;;5.15;3.60;;;4.20;99.90;;;;;;5039280;28;20060;-35
2024/02/13 08:22:06;;;;;;;6.03;3.78;;;4.20;99.90;;;;;;5040063;28;20419;-36
2024/02/13 08:24:32;;;;;;;5.57;3.78;;;4.30;99.90;;;;;;5038170;28;20658;-36
2024/02/13 08:26:58;;;;;;;4.75;3.30;;;4.30;99.90;;;;;;5039374;28;20028;-35
2024/02/13 08:29:24;;;;;;;6.55;4.75;;;4.30;99.90;;;;;;5039037;28;20063;-36
2024/02/13 08:31:50;;;;;;;4.47;3.90;;;4.40;99.90;;;;;;5038416;28;20061;-36
2024/02/13 08:34:17;;;;;;;6.03;4.10;;;4.50;99.90;;;;;;5038504;28;20112;-36
2024/02/13 08:36:44;;;;;;;4.80;3.60;;;4.50;99.90;;;;;;5038978;28;20525;-36
2024/02/13 08:39:10;;;;;;;5.13;3.75;;;4.60;99.90;;;;;;5037119;28;20112;-34
2024/02/13 08:41:36;;;;;;;6.60;3.60;;;4.60;99.90;;;;;;5038261;28;20078;-37
2024/02/13 08:44:02;;;;;;;3.60;3.20;;;4.70;99.90;;;;;;5038136;28;20134;-35
2024/02/13 08:46:28;;;;;;;6.38;3.67;;;4.70;99.90;;;;;;5038447;28;20037;-32
2024/02/13 08:48:54;;;;;;;4.38;3.40;;;4.70;99.90;;;;;;5038917;28;20029;-32
2024/02/13 08:51:20;;;;;;;4.55;2.90;;;4.80;99.90;;;;;;5038524;28;20025;-34
2024/02/13 08:53:46;;;;;;;4.55;3.38;;;4.80;99.90;;;;;;5038991;28;20032;-37
2024/02/13 08:56:15;;;;;;;4.97;3.00;;;4.80;99.90;;;;;;5039098;28;20118;-36
2024/02/13 08:58:41;;;;;;;3.75;3.15;;;4.90;99.90;;;;;;5038303;28;20013;-32
2024/02/13 09:01:07;;;;;;;4.70;2.72;;;4.90;99.90;;;;;;5038732;28;20102;-37
2024/02/13 09:03:33;;;;;;;3.55;2.42;;;5.00;99.90;;;;;;5038640;28;20049;-33
2024/02/13 09:06:04;;;;;;;3.85;2.60;;;5.00;99.90;;;;;;5037889;28;20040;-35
2024/02/13 09:08:34;;;;;;;4.57;3.03;;;5.00;99.90;;;;;;5037986;28;20044;-36
2024/02/13 09:10:59;;;;;;;4.43;2.90;;;5.00;99.90;;;;;;5037926;28;20144;-34
2024/02/13 09:13:25;;;;;;;4.05;2.70;;;5.10;99.90;;;;;;5037595;28;20029;-33
2024/02/13 09:15:51;;;;;;;4.18;2.75;;;5.10;99.90;;;;;;5038114;28;20037;-31
2024/02/13 09:18:17;;;;;;;6.03;2.97;;;5.20;99.90;;;;;;5038511;28;20029;-31
2024/02/13 09:20:43;;;;;;;7.38;3.03;;;5.20;99.90;;;;;;5037725;28;20025;-35
2024/02/13 09:23:09;;;;;;;3.53;2.78;;;5.30;99.90;;;;;;5038086;28;20032;-36
2024/02/13 09:25:38;;;;;;;3.50;2.55;;;5.40;99.90;;;;;;5037906;28;20090;-36
2024/02/13 09:28:04;;;;;;;3.58;2.45;;;5.50;99.90;;;;;;5037753;28;20037;-36
2024/02/13 09:30:29;;;;;;;3.45;2.33;;;5.50;99.90;;;;;;5037642;28;20025;-34
2024/02/13 09:32:55;;;;;;;3.40;2.47;;;5.60;99.90;;;;;;5037554;28;20166;-36
2024/02/13 09:35:21;;;;;;;3.67;2.38;;;5.70;99.90;;;;;;5038453;28;20041;-35
2024/02/13 09:37:47;;;;;;;6.05;2.88;;;5.70;99.90;;;;;;5039020;28;20335;-36
2024/02/13 09:40:13;;;;;;;5.22;2.65;;;5.80;99.90;;;;;;5037436;28;20559;-35
2024/02/13 09:42:46;;;;;;;3.40;2.50;;;5.90;99.90;;;;;;5038544;28;20029;-35
2024/02/13 09:45:13;;;;;;;5.32;2.58;;;6.00;99.90;;;;;;5038023;28;20025;-34
2024/02/13 09:47:40;;;;;;;3.28;2.00;;;6.10;99.90;;;;;;5037729;28;20032;-35
2024/02/13 09:50:11;;;;;;;4.13;2.47;;;6.10;99.90;;;;;;5038679;28;20044;-36
2024/02/13 09:52:38;;;;;;;5.95;2.40;;;6.20;99.90;;;;;;5037933;28;20032;-33
2024/02/13 09:55:05;;;;;;;3.13;2.03;;;6.20;99.90;;;;;;5041194;28;20024;-37
2024/02/13 09:57:31;;;;;;;3.08;2.20;;;6.30;99.90;;;;;;5040936;28;20111;-37
2024/02/13 09:59:57;;;;;;;4.35;2.30;;;6.30;99.90;;;;;;5042014;28;20035;-36
2024/02/13 10:02:27;;;;;;;3.55;2.15;;;6.40;99.90;;;;;;5040620;28;20381;-35
2024/02/13 10:04:56;;;;;;;3.00;2.10;;;6.40;99.90;;;;;;5042564;28;20033;-38
2024/02/13 10:07:22;;;;;;;3.35;2.20;;;6.50;99.90;;;;;;5041340;28;20033;-36
2024/02/13 10:09:49;;;;;;;3.67;2.25;;;6.50;99.90;;;;;;5041590;28;20053;-34
2024/02/13 10:12:15;;;;;;;3.95;2.10;;;6.60;99.90;;;;;;5041599;28;20788;-38
2024/02/13 10:14:57;;;;;;;4.20;2.35;;;6.60;99.90;;;;;;5041702;28;20035;-36
2024/02/13 10:17:23;;;;;;;4.43;2.30;;;6.70;99.90;;;;;;5040179;28;20021;-38
2024/02/13 10:19:49;;;;;;;3.28;2.00;;;6.70;99.90;;;;;;5041402;28;20036;-37
2024/02/13 10:22:16;;;;;;;2.60;2.10;;;6.70;99.90;;;;;;5040534;28;20032;-36
2024/02/13 10:24:47;;;;;;;2.70;1.77;;;6.70;99.90;;;;;;5040964;28;20056;-35
2024/02/13 10:27:14;;;;;;;3.42;2.13;;;6.80;99.90;;;;;;5041048;28;20025;-35
2024/02/13 10:29:45;;;;;;;3.35;2.00;;;6.90;99.90;;;;;;5040339;28;20083;-36
2024/02/13 10:32:11;;;;;;;2.83;2.35;;;6.90;99.90;;;;;;5040878;28;20136;-38
2024/02/13 10:34:37;;;;;;;3.63;2.10;;;7.00;99.90;;;;;;5040777;28;20027;-36
2024/02/13 10:37:08;;;;;;;4.50;2.38;;;7.10;99.90;;;;;;5040605;28;20060;-38
2024/02/13 10:39:36;;;;;;;4.78;2.20;;;7.10;99.90;;;;;;5041515;28;20024;-34
2024/02/13 10:42:07;;;;;;;3.25;2.28;;;7.20;99.90;;;;;;5041322;28;20025;-36
2024/02/13 10:44:43;;;;;;;4.95;2.47;;;7.20;99.90;;;;;;5041004;28;21135;-36
2024/02/13 10:47:18;;;;;;;5.15;2.65;;;7.20;99.90;;;;;;5041265;28;20091;-36
2024/02/13 10:49:53;;;;;;;3.45;2.15;;;7.30;99.90;;;;;;5040674;28;20488;-40
2024/02/13 10:52:20;;;;;;;4.35;2.28;;;7.40;99.90;;;;;;5039951;28;20029;-36
2024/02/13 10:54:48;;;;;;;4.93;2.20;;;7.40;99.90;;;;;;5041305;28;20029;-36
2024/02/13 10:57:16;;;;;;;3.70;2.15;;;7.50;99.90;;;;;;5041053;28;20181;-33
2024/02/13 10:59:44;;;;;;;3.88;2.10;;;7.60;99.90;;;;;;5038898;28;20079;-34
2024/02/13 11:02:13;;;;;;;5.28;2.50;;;7.70;99.90;;;;;;5039380;28;20124;-33
2024/02/13 11:04:43;;;;;;;5.28;2.22;;;7.80;99.90;;;;;;5039733;28;20032;-33
2024/02/13 11:07:11;;;;;;;5.90;2.85;;;7.90;99.90;;;;;;5040291;28;20032;-35
2024/02/13 11:09:37;;;;;;;3.85;2.10;;;8.00;99.90;;;;;;5039759;28;20080;-35
2024/02/13 11:12:04;;;;;;;3.85;2.22;;;8.00;99.90;;;;;;5040104;28;20021;-32
2024/02/13 11:14:30;;;;;;;7.60;2.65;;;8.10;99.90;;;;;;5039410;28;20021;-36
2024/02/13 11:16:59;;;;;;;4.15;2.15;;;8.20;99.90;;;;;;5039951;28;20321;-35
2024/02/13 11:19:37;;;;;;;3.05;2.00;;;8.20;99.90;;;;;;5039409;28;20143;-37
2024/02/13 11:22:04;;;;;;;2.50;2.00;;;8.30;99.90;;;;;;5039886;28;20387;-35
2024/02/13 11:24:43;;;;;;;5.95;2.50;;;8.30;99.90;;;;;;5039826;28;20025;-34
2024/02/13 11:27:25;;;;;;;3.63;2.08;;;8.40;99.90;;;;;;5039295;28;20037;-31
2024/02/13 11:29:58;;;;;;;4.28;2.50;;;8.40;99.90;;;;;;5039765;28;20056;-33
2024/02/13 11:32:25;;;;;;;5.78;2.40;;;8.50;99.90;;;;;;5040083;28;20029;-38
2024/02/13 11:34:55;;;;;;;5.15;3.38;;;8.60;99.90;;;;;;5038532;28;20052;-34
2024/02/13 11:37:26;;;;;;;5.82;2.65;;;8.70;99.90;;;;;;5040221;28;20025;-35
2024/02/13 11:39:51;;;;;;;5.60;2.58;;;8.70;99.90;;;;;;5039126;28;20032;-34
2024/02/13 11:42:18;;;;;;;5.63;3.13;;;8.80;99.90;;;;;;5039935;28;20031;-35
2024/02/13 11:44:44;;;;;;;3.72;2.40;;;8.90;99.90;;;;;;5039933;28;20070;-35
2024/02/13 11:47:10;;;;;;;5.93;2.60;;;9.00;99.90;;;;;;5038814;28;20108;-33
2024/02/13 11:49:36;;;;;;;4.60;2.90;;;9.00;99.90;;;;;;5039037;28;20037;-31
2024/02/13 11:52:05;;;;;;;3.72;2.25;;;9.00;99.90;;;;;;5039666;28;20017;-34
2024/02/13 11:54:35;;;;;;;7.57;2.72;;;9.10;99.90;;;;;;5038858;28;20033;-36
2024/02/13 11:57:00;;;;;;;3.97;2.20;;;9.10;99.90;;;;;;5039117;28;20366;-34
2024/02/13 11:59:26;;;;;;;4.25;2.67;;;9.20;99.90;;;;;;5039304;28;20577;-36
2024/02/13 12:01:52;;;;;;;3.83;2.20;;;9.20;99.90;;;;;;5038282;28;20032;-36
2024/02/13 12:04:19;;;;;;;4.20;2.10;;;9.20;99.90;;;;;;5039231;28;20486;-34
2024/02/13 12:06:48;;;;;;;6.68;2.45;;;9.20;99.90;;;;;;5039977;28;20109;-36
2024/02/13 12:09:17;;;;;;;7.60;2.55;;;9.30;99.90;;;;;;5038868;28;20047;-35
2024/02/13 12:11:45;;;;;;;2.33;1.75;;;9.30;99.90;;;;;;5039296;28;20039;-35
2024/02/13 12:14:13;;;;;;;4.43;2.05;;;9.30;99.90;;;;;;5039196;28;20463;-36
2024/02/13 12:16:39;;;;;;;4.68;2.22;;;9.40;99.90;;;;;;5039278;28;20037;-36
2024/02/13 12:19:10;;;;;;;3.40;2.17;;;9.40;99.90;;;;;;5040207;28;20036;-36
2024/02/13 12:21:37;;;;;;;5.20;2.03;;;9.40;99.90;;;;;;5039306;28;20492;-35
2024/02/13 12:24:03;;;;;;;5.07;2.28;;;9.40;99.90;;;;;;5038999;28;20037;-35
2024/02/13 12:26:29;;;;;;;3.85;2.28;;;9.40;99.90;;;;;;5038774;28;20021;-36
2024/02/13 12:28:57;;;;;;;3.97;1.88;;;9.50;99.90;;;;;;5039128;28;20111;-37
2024/02/13 12:31:27;;;;;;;4.00;2.13;;;9.50;99.90;;;;;;5039398;28;20028;-36
2024/02/13 12:34:06;;;;;;;2.90;1.80;;;9.60;99.90;;;;;;5039241;28;20021;-34
2024/02/13 12:36:33;;;;;;;4.40;1.90;;;9.70;99.90;;;;;;5037438;28;20474;-36
2024/02/13 12:39:16;;;;;;;3.90;1.92;;;9.80;99.90;;;;;;5038889;28;20083;-34
2024/02/13 12:41:46;;;;;;;4.97;2.08;;;9.90;99.90;;;;;;5038378;28;20060;-34
2024/02/13 12:44:13;;;;;;;5.38;1.92;;;10.10;99.90;;;;;;5037918;28;20025;-35
2024/02/13 12:46:42;;;;;;;3.88;1.60;;;10.10;99.90;;;;;;5038104;28;20041;-36
2024/02/13 12:49:10;;;;;;;2.97;1.85;;;10.20;99.90;;;;;;5038466;28;20021;-35
2024/02/13 12:51:39;;;;;;;3.40;1.60;;;10.30;99.90;;;;;;5037813;28;20024;-33
2024/02/13 12:54:06;;;;;;;3.97;1.75;;;10.30;99.90;;;;;;5038644;28;20036;-35
2024/02/13 12:56:40;;;;;;;2.35;1.50;;;10.30;99.90;;;;;;5038333;28;21105;-36
2024/02/13 12:59:12;;;;;;;3.00;1.52;;;10.30;99.90;;;;;;5037833;28;20124;-36